PST,Max TemperatureF,Mean TemperatureF,Min TemperatureF,Max Dew PointF,MeanDew PointF,Min DewpointF,Max Humidity, Mean Humidity, Min Humidity, Max Sea Level PressureIn, Mean Sea Level PressureIn, Min Sea Level PressureIn, Max VisibilityMiles, Mean VisibilityMiles, Min VisibilityMiles, Max Wind SpeedMPH, Mean Wind SpeedMPH, Max Gust SpeedMPH,PrecipitationIn, CloudCover, Events, WindDirDegrees
2013-2-1,55,47,39,45,42,37,100,84,62,30.37,30.30,30.24,10,10,3,16,6,22,0.00,1,,69
2013-2-2,59,52,44,46,41,36,93,78,51,30.36,30.29,30.24,10,8,2,15,8,22,0.00,3,,152
2013-2-3,46,45,44,45,44,43,100,91,87,30.36,30.31,30.27,10,8,2,5,2,,0.00,8,,164
2013-2-4,50,46,41,45,43,41,100,90,76,30.27,30.12,30.01,10,9,7,23,5,31,0.00,6,,184
2013-2-5,50,47,44,48,44,41,100,91,81,30.10,30.01,29.96,10,5,2,23,15,29,0.23,7,Rain,199
2013-2-6,50,46,41,45,42,37,93,88,76,30.13,30.04,29.88,10,7,3,26,12,36,0.33,7,Rain,187
2013-2-7,44,40,35,39,38,34,100,89,76,30.18,30.04,29.98,10,8,0,12,7,16,0.06,6,Fog-Rain,144
2013-2-8,46,39,32,41,36,32,100,91,71,30.32,30.28,30.18,10,8,0,17,6,24,0.00,2,Fog,38
2013-2-9,44,40,35,45,41,36,100,95,87,30.34,30.32,30.31,10,6,1,8,2,,0.01,8,,158
2013-2-10,48,45,42,45,41,37,100,90,76,30.38,30.35,30.33,10,9,4,13,3,16,0.00,8,,19
2013-2-11,46,44,41,46,41,37,100,87,71,30.45,30.41,30.36,10,6,1,9,3,,0.09,8,Rain,229
2013-2-12,48,47,46,48,46,45,100,98,93,30.55,30.50,30.45,7,3,0,9,5,,0.07,8,Rain,251
2013-2-13,48,45,42,46,45,43,100,96,87,30.56,30.52,30.49,10,5,0,10,5,,0.05,8,Fog-Rain,264
2013-2-14,53,45,37,46,42,37,100,92,71,30.59,30.55,30.49,10,8,2,12,4,,0.00,2,,36
2013-2-15,60,50,41,48,44,39,100,88,55,30.48,30.33,30.24,10,8,1,10,5,,0.00,1,,26
2013-2-16,48,44,37,46,43,36,100,92,81,30.35,30.33,30.29,10,7,2,12,6,18,0.03,7,Rain,294
2013-2-17,46,40,35,39,36,34,100,87,66,30.34,30.27,30.12,10,10,5,9,3,,0.02,4,Rain,37
2013-2-18,44,38,33,41,37,34,100,90,76,30.11,29.97,29.74,10,9,4,18,6,25,0.25,6,Rain,156
2013-2-19,48,40,33,41,37,34,100,88,66,30.05,29.83,29.68,10,10,4,15,5,18,0.18,7,Rain,48
2013-2-20,46,39,32,43,38,32,100,93,76,30.16,30.11,30.06,10,8,2,18,4,26,0.12,7,Rain,190
2013-2-21,44,42,41,45,40,36,100,86,71,30.28,30.23,30.18,10,5,2,22,10,29,0.18,8,Rain,236
2013-2-22,48,44,41,46,42,36,100,90,76,30.24,30.11,29.99,7,4,1,32,16,46,0.65,7,Rain,227
2013-2-23,46,40,35,37,36,34,100,80,66,30.49,30.37,30.19,7,6,3,24,10,33,0.08,6,Rain,315
2013-2-24,48,42,37,45,38,36,100,81,66,30.48,30.35,30.12,10,8,2,24,6,33,0.06,6,Rain,170
2013-2-25,48,44,39,45,38,32,100,78,62,30.43,30.33,30.11,10,6,2,25,14,34,0.26,7,Rain,283
2013-2-26,50,42,33,39,35,32,100,82,50,30.42,30.35,30.28,10,9,5,12,4,,0.00,3,,147
2013-2-27,50,46,41,48,44,37,100,93,87,30.33,30.29,30.23,10,6,1,22,5,30,0.17,8,Rain,153
2013-2-28,50,49,48,50,49,48,100,98,94,30.49,30.36,30.23,4,2,1,28,22,39,0.53,8,Rain,192